createdAt,value
2022-09-24T00:06:55.211Z,4.80
2022-09-24T00:47:46.051Z,4.15
2022-09-24T00:50:33.003Z,3.78
2022-09-24T02:42:22.680Z,5.15
2022-09-24T03:09:32.969Z,4.25
2022-09-24T03:12:22.574Z,4.35
2022-09-24T03:18:56.369Z,3.92
2022-09-24T03:24:21.444Z,6.68
2022-09-24T03:27:17.443Z,6.22
2022-09-24T03:33:16.904Z,5.97
2022-09-24T07:54:00.321Z,8.05
2022-09-24T08:21:19.719Z,6.20
2022-09-24T08:36:20.859Z,8.23
2022-09-24T08:45:15.244Z,7.47
2022-09-24T08:48:25.449Z,7.43
2022-09-24T08:54:17.441Z,7.50
2022-09-24T08:57:22.239Z,6.90
2022-09-24T09:03:08.391Z,7.10
2022-09-24T09:06:19.537Z,7.60
2022-09-24T09:09:11.964Z,6.90
2022-09-24T09:12:04.956Z,6.53
2022-09-24T09:15:12.103Z,6.35
2022-09-24T09:18:04.828Z,7.03
2022-09-24T09:20:53.343Z,7.38
2022-09-24T09:23:29.435Z,7.57
2022-09-24T09:26:16.488Z,7.22
2022-09-24T09:28:46.295Z,7.57
2022-09-24T09:31:29.794Z,7.43
2022-09-24T09:34:14.653Z,7.50
2022-09-24T09:37:07.875Z,7.65
2022-09-24T09:39:58.051Z,7.45
2022-09-24T09:42:33.619Z,7.25
2022-09-24T09:45:04.025Z,6.53
2022-09-24T09:47:42.762Z,7.15
2022-09-24T09:50:27.212Z,7.53
2022-09-24T09:53:06.421Z,6.90
2022-09-24T09:55:40.950Z,7.25
2022-09-24T09:58:18.272Z,7.40
2022-09-24T10:00:50.081Z,7.25
2022-09-24T10:03:25.741Z,7.05
2022-09-24T10:06:06.467Z,6.80
2022-09-24T10:08:42.448Z,6.67
2022-09-24T10:11:16.543Z,7.68
2022-09-24T10:14:02.642Z,7.20
2022-09-24T10:16:37.028Z,6.88
2022-09-24T10:19:05.142Z,6.53
2022-09-24T10:21:38.930Z,6.43
2022-09-24T10:24:17.859Z,6.32
2022-09-24T10:26:49.115Z,5.80
2022-09-24T10:29:38.680Z,6.90
2022-09-24T10:32:09.747Z,6.90
2022-09-24T10:34:42.993Z,6.35
2022-09-24T10:37:16.324Z,7.53
2022-09-24T10:39:58.150Z,6.00
2022-09-24T10:42:29.096Z,6.25
2022-09-24T10:45:15.345Z,6.13
2022-09-24T10:48:11.630Z,5.90
2022-09-24T10:50:45.550Z,5.47
2022-09-24T10:53:39.972Z,6.45
2022-09-24T10:56:32.423Z,6.75
2022-09-24T10:59:25.430Z,6.78
2022-09-24T11:02:17.697Z,6.35
2022-09-24T11:05:09.646Z,6.38
2022-09-24T11:07:41.013Z,5.97
2022-09-24T11:12:54.062Z,5.82
2022-09-24T11:15:24.993Z,7.03
2022-09-24T11:18:03.768Z,7.38
2022-09-24T11:21:02.998Z,6.25
2022-09-24T11:23:45.118Z,6.63
2022-09-24T11:26:14.123Z,7.32
2022-09-24T11:29:10.167Z,6.55
2022-09-24T11:31:43.907Z,6.00
2022-09-24T11:34:30.844Z,5.93
2022-09-24T11:37:09.093Z,6.15
2022-09-24T11:39:58.504Z,6.72
2022-09-24T11:42:58.332Z,6.88
2022-09-24T11:45:48.921Z,7.13
2022-09-24T11:52:01.107Z,7.15
2022-09-24T11:54:40.873Z,7.40
2022-09-24T11:57:27.085Z,7.45
2022-09-24T12:00:09.086Z,7.60
2022-09-24T12:02:39.743Z,7.05
2022-09-24T12:05:22.759Z,8.25
2022-09-24T12:08:05.269Z,7.85
2022-09-24T12:10:58.298Z,6.10
2022-09-24T12:13:36.336Z,7.00
2022-09-24T12:16:16.721Z,6.68
2022-09-24T12:19:09.663Z,7.15
2022-09-24T12:21:46.858Z,7.57
2022-09-24T12:24:19.192Z,7.88
2022-09-24T12:26:48.856Z,6.50
2022-09-24T12:32:45.680Z,6.13
2022-09-24T12:35:37.967Z,8.20
2022-09-24T12:38:14.212Z,12.75
2022-09-24T12:40:56.281Z,10.48
2022-09-24T12:43:33.800Z,8.68
2022-09-24T12:46:07.964Z,8.50
2022-09-24T12:48:38.593Z,8.48
2022-09-24T12:51:11.016Z,8.07
2022-09-24T12:53:41.517Z,7.95
2022-09-24T12:56:25.194Z,8.47
2022-09-24T12:58:58.298Z,7.90
2022-09-24T13:01:33.983Z,8.60
2022-09-24T13:04:21.240Z,7.97
2022-09-24T13:06:51.517Z,9.10
2022-09-24T13:09:41.228Z,8.20
2022-09-24T13:12:20.082Z,8.70
2022-09-24T13:15:04.216Z,5.88
2022-09-24T13:17:35.444Z,7.32
2022-09-24T13:20:18.995Z,6.85
2022-09-24T13:23:07.292Z,8.25
2022-09-24T13:25:41.986Z,8.05
2022-09-24T13:28:38.242Z,8.82
2022-09-24T13:31:42.272Z,8.35
2022-09-24T13:34:23.456Z,8.95
2022-09-24T13:37:02.078Z,7.45
2022-09-24T13:39:47.604Z,9.80
2022-09-24T13:42:17.640Z,7.93
2022-09-24T13:45:08.816Z,8.02
2022-09-24T13:47:53.157Z,8.55
2022-09-24T13:50:24.744Z,8.68
2022-09-24T13:52:54.700Z,7.47
2022-09-24T13:55:38.012Z,7.47
2022-09-24T13:58:07.417Z,7.88
2022-09-24T14:00:43.935Z,8.07
2022-09-24T14:03:31.341Z,8.80
2022-09-24T14:06:24.044Z,9.02
2022-09-24T14:08:52.876Z,8.65
2022-09-24T14:11:26.299Z,8.55
2022-09-24T14:13:57.845Z,8.65
2022-09-24T14:16:28.242Z,8.57
2022-09-24T14:19:15.592Z,9.20
2022-09-24T14:21:47.189Z,8.45
2022-09-24T14:24:33.849Z,9.32
2022-09-24T14:27:14.465Z,8.88
2022-09-24T14:29:55.874Z,9.63
2022-09-24T14:35:05.449Z,7.97
2022-09-24T14:37:39.142Z,8.25
2022-09-24T14:40:13.328Z,8.90
2022-09-24T14:43:06.392Z,12.80
2022-09-24T14:45:42.113Z,9.77
2022-09-24T14:48:25.527Z,9.60
2022-09-24T14:50:58.027Z,8.95
2022-09-24T14:53:35.924Z,9.15
2022-09-24T14:56:21.787Z,9.43
2022-09-24T14:58:54.753Z,9.27
2022-09-24T15:01:34.931Z,9.18
2022-09-24T15:04:07.769Z,8.25
2022-09-24T15:06:38.519Z,8.73
2022-09-24T15:09:29.227Z,8.15
2022-09-24T15:12:10.121Z,8.67
2022-09-24T15:14:40.508Z,8.68
2022-09-24T15:17:27.138Z,8.97
2022-09-24T15:20:24.465Z,8.40
2022-09-24T15:22:59.444Z,8.18
2022-09-24T15:25:35.177Z,8.32
2022-09-24T15:28:18.250Z,8.52
2022-09-24T15:30:48.662Z,8.40
2022-09-24T15:33:19.948Z,8.67
2022-09-24T15:38:33.609Z,7.45
2022-09-24T15:41:02.812Z,7.07
2022-09-24T19:15:23.570Z,23.35
2022-09-24T19:15:30.852Z,27.25
2022-09-24T20:33:31.383Z,18.58
2022-09-24T20:36:15.502Z,17.08
2022-09-24T20:42:07.888Z,15.57
2022-09-24T20:44:51.604Z,16.70
2022-09-24T21:34:52.203Z,19.05
2022-09-24T23:41:55.129Z,14.18
2022-09-24T23:53:53.508Z,12.02
2022-09-24T23:56:22.720Z,11.52
